Time;durP1;ratioP1;P1;durP2;ratioP2;P2;SDS_P1;SDS_P2;PMS_P1;PMS_P2;Temp;Humidity;BMP_temperature;BMP_pressure;BME280_temperature;BME280_humidity;BME280_pressure;Samples;Min_cycle;Max_cycle;Signal;HPM_P1;HPM_P2
2021/08/27 00:01:17;;;;;;;6.78;3.53;;;9.70;99.90;;;;;;5051789;28;20025;-80
2021/08/27 00:03:42;;;;;;;5.97;3.45;;;9.70;99.90;;;;;;5052062;28;20024;-79
2021/08/27 00:06:08;;;;;;;5.07;3.40;;;9.70;99.90;;;;;;5051809;28;20473;-77
2021/08/27 00:08:34;;;;;;;6.72;3.17;;;9.70;99.90;;;;;;5051834;28;20051;-76
2021/08/27 00:11:00;;;;;;;9.77;3.47;;;9.70;99.90;;;;;;5051698;28;20122;-76
2021/08/27 00:13:25;;;;;;;4.85;3.63;;;9.70;99.90;;;;;;5051547;28;20036;-76
2021/08/27 00:15:51;;;;;;;6.22;3.72;;;9.70;99.90;;;;;;5051940;28;20064;-76
2021/08/27 00:18:17;;;;;;;6.60;3.65;;;9.70;99.90;;;;;;5051700;28;20079;-76
2021/08/27 00:20:43;;;;;;;6.43;3.35;;;9.60;99.90;;;;;;5051936;28;20108;-76
2021/08/27 00:23:09;;;;;;;6.25;3.30;;;9.60;99.90;;;;;;5051871;28;20079;-76
2021/08/27 00:25:35;;;;;;;7.00;3.20;;;9.60;99.90;;;;;;5051394;28;20053;-78
2021/08/27 00:28:02;;;;;;;5.82;3.42;;;9.60;99.90;;;;;;5051751;28;20033;-78
2021/08/27 00:30:28;;;;;;;4.60;3.60;;;9.50;99.90;;;;;;5051636;28;20025;-78
2021/08/27 00:32:54;;;;;;;4.50;3.38;;;9.50;99.90;;;;;;5055469;28;20479;-78
2021/08/27 00:35:19;;;;;;;5.22;3.30;;;9.50;99.90;;;;;;5055162;28;20111;-78
2021/08/27 00:37:45;;;;;;;6.30;3.30;;;9.50;99.90;;;;;;5055472;28;20025;-78
2021/08/27 00:40:11;;;;;;;6.85;3.47;;;9.60;99.90;;;;;;5055195;28;20445;-78
2021/08/27 00:42:37;;;;;;;5.88;2.92;;;9.60;99.90;;;;;;5054999;28;20028;-82
2021/08/27 00:45:03;;;;;;;6.70;3.17;;;9.60;99.90;;;;;;5055114;28;20100;-81
2021/08/27 00:47:29;;;;;;;4.32;3.08;;;9.60;99.90;;;;;;5054959;28;20503;-81
2021/08/27 00:49:55;;;;;;;4.80;2.83;;;9.60;99.90;;;;;;5055288;28;20029;-81
2021/08/27 00:52:20;;;;;;;7.53;3.45;;;9.60;99.90;;;;;;5054931;28;20037;-82
2021/08/27 00:54:51;;;;;;;4.40;3.00;;;9.50;99.90;;;;;;5054803;28;20414;-79
2021/08/27 00:57:18;;;;;;;4.60;3.15;;;9.50;99.90;;;;;;5054925;28;20021;-78
2021/08/27 00:59:45;;;;;;;5.40;3.30;;;9.50;99.90;;;;;;5055105;28;20060;-78
2021/08/27 01:02:11;;;;;;;5.32;3.30;;;9.50;99.90;;;;;;5055105;28;20480;-78
2021/08/27 01:04:38;;;;;;;4.88;3.45;;;9.50;99.90;;;;;;5054903;28;20025;-78
2021/08/27 01:07:19;;;;;;;5.38;3.40;;;9.50;99.90;;;;;;5054935;28;20068;-78
2021/08/27 01:10:04;;;;;;;6.13;3.35;;;9.50;99.90;;;;;;5054529;28;20025;-78
2021/08/27 01:12:38;;;;;;;5.50;3.80;;;9.50;99.90;;;;;;5054739;28;20040;-78
2021/08/27 01:15:18;;;;;;;5.85;3.20;;;9.50;99.90;;;;;;5054743;28;20045;-78
2021/08/27 01:46:50;;;;;;;7.25;3.33;;;9.60;99.90;;;;;;5053658;28;20508;-78
2021/08/27 01:49:16;;;;;;;5.90;3.25;;;9.60;99.90;;;;;;5054011;28;20028;-78
2021/08/27 01:51:44;;;;;;;6.95;3.65;;;9.60;99.90;;;;;;5053707;28;20029;-78
2021/08/27 01:54:11;;;;;;;7.15;3.47;;;9.60;99.90;;;;;;5053635;28;20512;-78
2021/08/27 01:56:39;;;;;;;12.60;4.85;;;9.60;99.90;;;;;;5053711;28;20039;-78
2021/08/27 01:59:07;;;;;;;4.78;3.03;;;9.50;99.90;;;;;;5053681;28;20021;-78
2021/08/27 02:01:35;;;;;;;4.82;3.25;;;9.50;99.90;;;;;;5053770;28;20025;-77
2021/08/27 02:04:05;;;;;;;5.75;2.97;;;9.50;99.90;;;;;;5053599;28;20033;-78
2021/08/27 02:06:32;;;;;;;6.85;2.95;;;9.50;99.90;;;;;;5053538;28;20112;-78
2021/08/27 02:09:00;;;;;;;7.65;3.03;;;9.50;99.90;;;;;;5053577;28;20057;-78
2021/08/27 02:11:27;;;;;;;5.28;3.28;;;9.50;99.90;;;;;;5053491;28;20032;-78
2021/08/27 02:13:54;;;;;;;6.50;3.15;;;9.50;99.90;;;;;;5053258;28;20033;-78
2021/08/27 02:16:20;;;;;;;5.10;2.85;;;9.60;99.90;;;;;;5053361;28;20025;-78
2021/08/27 02:18:46;;;;;;;6.55;3.15;;;9.50;99.90;;;;;;5053100;28;20029;-78
2021/08/27 02:21:13;;;;;;;4.22;3.03;;;9.50;99.90;;;;;;5053617;28;20115;-76
2021/08/27 02:23:41;;;;;;;7.65;2.92;;;9.60;99.90;;;;;;5053361;28;20389;-77
2021/08/27 02:26:11;;;;;;;5.47;3.13;;;9.50;99.90;;;;;;5053110;28;20029;-77
2021/08/27 02:28:38;;;;;;;5.25;3.03;;;9.50;99.90;;;;;;5053001;28;20473;-77
2021/08/27 02:31:05;;;;;;;6.55;3.00;;;9.50;99.90;;;;;;5053359;28;20559;-77
2021/08/27 02:33:31;;;;;;;8.55;3.30;;;9.60;99.90;;;;;;5053022;28;20057;-77
2021/08/27 02:35:59;;;;;;;4.50;2.88;;;9.50;99.90;;;;;;5053194;28;20068;-77
2021/08/27 02:38:28;;;;;;;9.65;3.20;;;9.50;99.90;;;;;;5052980;28;20021;-77
2021/08/27 02:40:54;;;;;;;4.70;3.15;;;9.50;99.90;;;;;;5053088;28;20056;-77
2021/08/27 02:43:20;;;;;;;4.47;2.20;;;9.50;99.90;;;;;;5052789;28;20028;-77
2021/08/27 02:45:46;;;;;;;5.22;3.00;;;9.50;99.90;;;;;;5052938;28;20494;-77
2021/08/27 02:48:12;;;;;;;4.70;3.05;;;9.50;99.90;;;;;;5053059;28;20107;-78
2021/08/27 02:50:48;;;;;;;5.65;3.10;;;9.50;99.90;;;;;;5052926;28;20507;-78
2021/08/27 02:53:25;;;;;;;6.00;2.85;;;9.50;99.90;;;;;;5052427;28;20025;-78
2021/08/27 02:56:03;;;;;;;5.50;2.90;;;9.50;99.90;;;;;;5052572;28;20037;-79
2021/08/27 02:58:32;;;;;;;5.03;2.78;;;9.50;99.90;;;;;;5052710;28;20033;-79
2021/08/27 03:01:00;;;;;;;4.55;2.90;;;9.50;99.90;;;;;;5052620;28;20024;-79
2021/08/27 03:03:32;;;;;;;4.70;3.00;;;9.50;99.90;;;;;;5052728;28;20471;-79
2021/08/27 03:06:23;;;;;;;4.45;2.85;;;9.50;99.90;;;;;;5052667;28;20068;-79
2021/08/27 03:09:04;;;;;;;4.70;2.80;;;9.50;99.90;;;;;;5052145;28;20033;-79
2021/08/27 03:11:35;;;;;;;5.50;2.80;;;9.40;99.90;;;;;;5052728;28;20033;-79
2021/08/27 03:14:08;;;;;;;5.30;2.83;;;9.40;99.90;;;;;;5052260;28;20029;-79
2021/08/27 03:16:38;;;;;;;5.10;2.80;;;9.40;99.90;;;;;;5051010;28;20025;-79
2021/08/27 03:19:10;;;;;;;7.47;3.10;;;9.40;99.90;;;;;;5052287;28;20025;-79
2021/08/27 03:22:08;;;;;;;4.82;2.88;;;9.40;99.90;;;;;;5052212;28;20426;-78
2021/08/27 03:24:39;;;;;;;4.80;3.05;;;9.30;99.90;;;;;;5051039;28;20067;-77
2021/08/27 03:27:11;;;;;;;5.13;2.88;;;9.30;99.90;;;;;;5052423;28;20087;-77
2021/08/27 03:29:44;;;;;;;4.25;2.83;;;9.30;99.90;;;;;;5052330;28;20380;-77
2021/08/27 03:32:13;;;;;;;6.05;2.90;;;9.30;99.90;;;;;;5052451;28;20037;-77
2021/08/27 03:34:44;;;;;;;3.67;2.55;;;9.30;99.90;;;;;;5052256;28;20024;-77
2021/08/27 03:37:10;;;;;;;4.95;2.70;;;9.40;99.90;;;;;;5052093;28;20527;-77
2021/08/27 03:39:37;;;;;;;7.45;2.85;;;9.40;99.90;;;;;;5051904;28;20024;-77
2021/08/27 03:42:04;;;;;;;4.95;2.65;;;9.40;99.90;;;;;;5052123;28;20025;-77
2021/08/27 03:44:35;;;;;;;5.45;2.70;;;9.40;99.90;;;;;;5051783;28;20447;-77
2021/08/27 03:47:02;;;;;;;7.72;2.90;;;9.40;99.90;;;;;;5051753;28;20126;-77
2021/08/27 03:49:28;;;;;;;5.07;2.58;;;9.40;99.90;;;;;;5051766;28;20028;-77
2021/08/27 03:51:56;;;;;;;6.88;3.20;;;9.40;99.90;;;;;;5051735;28;20020;-77
2021/08/27 03:54:23;;;;;;;11.07;2.72;;;9.40;99.90;;;;;;5051674;28;20045;-77
2021/08/27 03:56:50;;;;;;;5.85;2.95;;;9.50;99.90;;;;;;5051730;28;20029;-76
2021/08/27 03:59:21;;;;;;;10.07;3.10;;;9.50;99.90;;;;;;5051746;28;20049;-78
2021/08/27 04:01:48;;;;;;;7.20;2.83;;;9.60;99.90;;;;;;5051526;28;20437;-78
2021/08/27 04:04:19;;;;;;;7.10;2.50;;;9.60;99.90;;;;;;5051642;28;20499;-78
2021/08/27 04:07:02;;;;;;;7.25;2.22;;;9.70;99.90;;;;;;5055142;28;20033;-78
2021/08/27 04:09:30;;;;;;;6.18;2.45;;;10.00;99.90;;;;;;5055868;28;20021;-78
2021/08/27 04:11:57;;;;;;;4.30;2.60;;;10.30;99.90;;;;;;5055690;28;20032;-76
2021/08/27 04:14:23;;;;;;;5.10;2.40;;;10.60;99.90;;;;;;5055702;28;20025;-79
2021/08/27 04:16:49;;;;;;;3.83;2.10;;;11.00;99.90;;;;;;5055601;28;20025;-78
2021/08/27 04:19:16;;;;;;;6.10;2.63;;;11.30;99.90;;;;;;5055900;28;20059;-78
2021/08/27 04:21:43;;;;;;;5.55;2.08;;;11.60;99.90;;;;;;5055570;28;20025;-78
2021/08/27 04:24:10;;;;;;;3.25;2.22;;;11.90;99.90;;;;;;5055459;28;20027;-79
2021/08/27 04:26:35;;;;;;;5.35;2.40;;;12.10;99.90;;;;;;5055506;28;20025;-77
2021/08/27 04:29:02;;;;;;;6.68;2.00;;;12.40;99.90;;;;;;5055206;28;20095;-78
2021/08/27 04:31:28;;;;;;;10.13;2.63;;;12.60;99.90;;;;;;5055792;28;20361;-74
2021/08/27 04:33:53;;;;;;;5.20;2.72;;;12.80;99.90;;;;;;5055499;28;20563;-73
2021/08/27 04:36:19;;;;;;;3.75;2.08;;;13.10;99.90;;;;;;5055632;28;20060;-74
2021/08/27 04:38:45;;;;;;;4.63;1.50;;;13.30;99.90;;;;;;5055368;28;20075;-76
2021/08/27 04:41:11;;;;;;;4.20;1.48;;;13.80;99.90;;;;;;5055534;28;20072;-76
2021/08/27 04:43:37;;;;;;;6.88;2.17;;;14.70;99.90;;;;;;5055195;28;20540;-76
2021/08/27 04:46:02;;;;;;;7.00;2.50;;;15.20;99.90;;;;;;5054975;28;20029;-78
2021/08/27 04:48:28;;;;;;;10.05;2.13;;;15.10;99.90;;;;;;5055040;28;20083;-76
2021/08/27 04:50:54;;;;;;;10.60;2.10;;;15.00;99.90;;;;;;5055296;28;20021;-76
2021/08/27 04:53:19;;;;;;;5.03;2.08;;;15.00;99.90;;;;;;5054908;28;20488;-77
2021/08/27 04:55:45;;;;;;;11.90;2.03;;;15.10;99.90;;;;;;5055052;28;20048;-78
2021/08/27 04:58:11;;;;;;;8.25;2.00;;;15.20;99.90;;;;;;5055078;28;20036;-78
2021/08/27 05:00:37;;;;;;;2.22;1.60;;;15.40;99.90;;;;;;5054886;28;20017;-78
2021/08/27 05:03:02;;;;;;;3.95;1.90;;;15.50;99.90;;;;;;5054708;28;20037;-76
2021/08/27 05:05:28;;;;;;;4.35;1.75;;;15.70;99.90;;;;;;5054732;28;20021;-76
2021/08/27 05:07:54;;;;;;;4.55;2.08;;;15.80;99.90;;;;;;5054423;28;20032;-77
2021/08/27 05:10:20;;;;;;;3.00;1.60;;;16.00;99.90;;;;;;5054955;28;20036;-77
2021/08/27 05:12:46;;;;;;;6.75;1.90;;;16.10;99.90;;;;;;5054736;28;20067;-77
2021/08/27 05:15:12;;;;;;;9.80;2.72;;;16.30;99.90;;;;;;5054558;28;20017;-77
2021/08/27 05:17:39;;;;;;;2.67;1.50;;;16.50;99.80;;;;;;5054101;28;20025;-77
2021/08/27 05:20:06;;;;;;;2.83;1.80;;;16.60;99.70;;;;;;5054524;28;20041;-78
2021/08/27 05:22:32;;;;;;;3.85;1.77;;;16.70;98.70;;;;;;5054488;28;20029;-77
2021/08/27 05:24:58;;;;;;;6.45;1.80;;;16.90;98.10;;;;;;5052960;28;20483;-78
2021/08/27 05:27:24;;;;;;;6.10;1.75;;;17.00;97.80;;;;;;5054475;28;20041;-76
2021/08/27 05:29:50;;;;;;;3.72;1.90;;;17.20;96.90;;;;;;5054304;28;20090;-77
2021/08/27 05:32:16;;;;;;;8.15;1.55;;;17.30;95.80;;;;;;5054133;28;20063;-75
2021/08/27 05:34:42;;;;;;;4.18;1.75;;;17.40;95.00;;;;;;5054108;28;20029;-75
2021/08/27 05:37:08;;;;;;;4.47;2.13;;;17.50;94.50;;;;;;5054251;28;20040;-76
2021/08/27 05:39:34;;;;;;;2.97;1.40;;;17.60;94.20;;;;;;5054041;28;20036;-76
2021/08/27 05:42:00;;;;;;;3.13;1.75;;;17.70;93.50;;;;;;5054262;28;20017;-76
2021/08/27 05:44:27;;;;;;;4.32;1.77;;;17.90;92.90;;;;;;5054007;28;20055;-76
2021/08/27 05:46:53;;;;;;;9.18;2.03;;;18.10;92.60;;;;;;5053876;28;20477;-76
2021/08/27 05:49:19;;;;;;;4.10;1.83;;;18.10;93.30;;;;;;5054043;28;20021;-76
2021/08/27 05:51:45;;;;;;;4.35;1.70;;;18.30;92.00;;;;;;5054088;28;20068;-76
2021/08/27 05:54:11;;;;;;;2.92;1.40;;;18.20;91.00;;;;;;5055959;28;20044;-75
2021/08/27 05:56:36;;;;;;;6.60;1.58;;;18.30;91.60;;;;;;5068348;28;20115;-77
2021/08/27 05:59:02;;;;;;;2.22;1.50;;;18.40;91.20;;;;;;5065397;28;20037;-76
2021/08/27 06:01:28;;;;;;;2.75;1.80;;;18.40;90.30;;;;;;5056465;28;20040;-76
2021/08/27 06:03:54;;;;;;;2.97;1.35;;;18.30;90.20;;;;;;5059629;28;20024;-76
2021/08/27 06:06:20;;;;;;;3.92;1.50;;;18.30;89.10;;;;;;5072726;28;20495;-77
2021/08/27 06:08:46;;;;;;;4.05;1.50;;;18.40;89.60;;;;;;5073764;28;20052;-73
2021/08/27 06:11:11;;;;;;;2.65;1.60;;;18.40;88.90;;;;;;5073700;28;20044;-72
2021/08/27 06:13:37;;;;;;;3.72;1.50;;;18.30;87.50;;;;;;5073422;28;20559;-74
2021/08/27 06:16:03;;;;;;;2.40;1.77;;;18.40;87.20;;;;;;5073493;28;20032;-75
2021/08/27 06:18:29;;;;;;;2.85;1.50;;;18.40;88.10;;;;;;5073310;28;20059;-75
2021/08/27 06:20:55;;;;;;;2.45;1.58;;;18.50;88.30;;;;;;5073024;28;20048;-76
2021/08/27 06:23:21;;;;;;;2.22;1.73;;;18.50;87.00;;;;;;5073218;28;20107;-77
2021/08/27 06:25:47;;;;;;;4.97;1.45;;;18.80;90.90;;;;;;5072991;28;20025;-77
2021/08/27 06:28:13;;;;;;;2.70;1.70;;;18.90;87.10;;;;;;5072460;28;20434;-77
2021/08/27 06:30:39;;;;;;;4.13;2.22;;;18.90;86.40;;;;;;5072493;28;20048;-77
2021/08/27 06:33:05;;;;;;;3.30;2.05;;;18.90;86.80;;;;;;5073215;28;20025;-77
2021/08/27 06:35:31;;;;;;;7.03;2.25;;;18.80;85.80;;;;;;5072875;28;20035;-77
2021/08/27 06:40:43;;;;;;;2.83;1.65;;;18.90;86.30;;;;;;5073206;28;20592;-77
2021/08/27 06:43:10;;;;;;;3.30;2.08;;;18.70;86.00;;;;;;5072845;28;20097;-77
2021/08/27 06:45:36;;;;;;;3.25;1.73;;;18.50;86.20;;;;;;5072580;28;20028;-77
2021/08/27 06:48:02;;;;;;;10.35;2.38;;;18.40;86.90;;;;;;5072542;28;20039;-77
2021/08/27 06:50:28;;;;;;;4.50;2.15;;;18.40;87.50;;;;;;5069318;28;20025;-77
2021/08/27 06:52:55;;;;;;;7.07;1.92;;;18.40;90.00;;;;;;5072422;28;20108;-76
2021/08/27 06:55:21;;;;;;;2.58;1.73;;;18.50;89.90;;;;;;5063548;28;20057;-76
2021/08/27 06:57:46;;;;;;;6.03;2.10;;;18.70;89.10;;;;;;5060739;28;20074;-76
2021/08/27 07:00:13;;;;;;;3.67;2.13;;;18.80;87.30;;;;;;5063034;28;20021;-73
2021/08/27 07:02:38;;;;;;;6.03;2.03;;;18.50;88.80;;;;;;5072632;28;20104;-73
2021/08/27 07:05:05;;;;;;;6.32;2.20;;;18.50;90.30;;;;;;5072530;28;20066;-74
2021/08/27 07:07:31;;;;;;;2.67;1.75;;;18.50;90.40;;;;;;5072353;28;20067;-74
2021/08/27 07:09:57;;;;;;;4.53;2.08;;;18.50;90.20;;;;;;5072234;28;20415;-73
2021/08/27 07:12:23;;;;;;;6.00;2.40;;;18.30;90.10;;;;;;5072240;28;20095;-73
2021/08/27 07:14:50;;;;;;;3.88;2.47;;;18.40;91.00;;;;;;5061654;28;20178;-73
2021/08/27 07:17:19;;;;;;;5.30;2.40;;;18.40;90.20;;;;;;5059739;28;20086;-73
2021/08/27 07:19:46;;;;;;;3.50;2.25;;;18.30;90.20;;;;;;5062921;28;20098;-73
2021/08/27 07:22:13;;;;;;;3.38;2.22;;;18.10;90.90;;;;;;5052450;28;20036;-73
2021/08/27 07:24:38;;;;;;;6.43;2.20;;;18.00;91.20;;;;;;5053794;28;20017;-73
2021/08/27 07:27:04;;;;;;;12.73;2.33;;;17.90;90.80;;;;;;5061561;28;20040;-73
2021/08/27 07:29:30;;;;;;;4.65;2.15;;;17.80;91.20;;;;;;5062708;28;20514;-73
2021/08/27 07:31:56;;;;;;;6.47;2.40;;;17.70;91.10;;;;;;5060798;28;20028;-73
2021/08/27 07:34:21;;;;;;;4.10;1.75;;;17.50;91.30;;;;;;5068910;28;20082;-73
2021/08/27 07:36:47;;;;;;;3.05;2.13;;;17.40;91.70;;;;;;5072251;28;20024;-72
2021/08/27 07:39:13;;;;;;;12.27;2.95;;;17.30;91.90;;;;;;5071768;28;20071;-72
2021/08/27 07:41:38;;;;;;;6.00;2.63;;;17.30;92.50;;;;;;5071771;28;20112;-74
2021/08/27 07:44:04;;;;;;;4.47;2.40;;;17.40;92.90;;;;;;5070443;28;20401;-74
2021/08/27 07:46:30;;;;;;;3.13;2.05;;;17.20;93.10;;;;;;5072082;28;20120;-74
2021/08/27 07:48:56;;;;;;;6.13;2.35;;;17.20;93.80;;;;;;5061388;28;20560;-73
2021/08/27 07:51:22;;;;;;;4.63;2.38;;;17.30;94.10;;;;;;5069284;28;20056;-72
2021/08/27 07:53:47;;;;;;;7.80;2.72;;;17.40;94.00;;;;;;5060853;28;20119;-76
2021/08/27 07:56:13;;;;;;;3.88;2.60;;;17.30;93.50;;;;;;5060316;28;20416;-75
2021/08/27 07:58:39;;;;;;;4.35;2.65;;;17.20;93.40;;;;;;5062386;28;20036;-76
2021/08/27 08:01:04;;;;;;;5.35;2.70;;;17.10;93.70;;;;;;5054114;28;20028;-78
2021/08/27 08:03:30;;;;;;;4.72;2.90;;;16.90;94.20;;;;;;5051655;28;20091;-74
2021/08/27 08:05:56;;;;;;;14.70;3.63;;;17.20;96.40;;;;;;5051364;28;20103;-74
2021/08/27 08:08:22;;;;;;;18.55;3.30;;;17.10;94.30;;;;;;5051956;28;20037;-74
2021/08/27 08:10:47;;;;;;;6.97;3.20;;;16.90;94.00;;;;;;5051560;28;20039;-74
2021/08/27 08:13:13;;;;;;;5.07;2.45;;;16.90;94.20;;;;;;5051762;28;20029;-74
2021/08/27 08:15:39;;;;;;;3.70;2.70;;;16.80;94.00;;;;;;5051564;28;20410;-74
2021/08/27 08:18:05;;;;;;;3.60;2.45;;;16.80;94.30;;;;;;5051443;28;20104;-74
2021/08/27 08:20:31;;;;;;;4.50;2.83;;;16.80;93.70;;;;;;5051698;28;20081;-74
2021/08/27 08:22:57;;;;;;;4.90;2.53;;;16.70;93.40;;;;;;5051492;28;20107;-74
2021/08/27 08:25:23;;;;;;;3.40;2.78;;;16.50;93.20;;;;;;5051614;28;20054;-74
2021/08/27 08:27:49;;;;;;;4.63;2.58;;;16.50;94.10;;;;;;5051313;28;20065;-74
2021/08/27 08:30:15;;;;;;;4.22;2.60;;;16.50;93.70;;;;;;5051266;28;20473;-74
2021/08/27 08:32:41;;;;;;;5.60;2.92;;;16.40;93.70;;;;;;5051361;28;20033;-74
2021/08/27 08:35:07;;;;;;;9.30;3.38;;;16.40;93.60;;;;;;5051170;28;20096;-74
2021/08/27 08:37:37;;;;;;;5.95;3.08;;;16.30;93.40;;;;;;5051713;28;20052;-74
2021/08/27 08:40:04;;;;;;;5.15;3.00;;;16.30;92.60;;;;;;5051224;28;20031;-74
2021/08/27 08:42:29;;;;;;;4.22;2.85;;;16.20;93.00;;;;;;5051324;28;20565;-74
2021/08/27 08:44:55;;;;;;;7.30;2.50;;;16.20;94.30;;;;;;5051316;28;20096;-74
2021/08/27 08:47:22;;;;;;;4.75;2.65;;;16.30;94.40;;;;;;5051550;28;20052;-74
2021/08/27 08:49:49;;;;;;;4.05;2.70;;;16.20;93.80;;;;;;5051402;28;20067;-74
2021/08/27 08:52:19;;;;;;;9.88;3.08;;;16.20;94.50;;;;;;5052224;28;20021;-74
2021/08/27 08:54:48;;;;;;;10.37;2.73;;;16.20;94.90;;;;;;5054854;28;20041;-74
2021/08/27 08:57:14;;;;;;;9.20;2.90;;;16.10;94.90;;;;;;5054835;28;20025;-74
2021/08/27 08:59:40;;;;;;;3.90;2.50;;;16.00;93.80;;;;;;5054820;28;20025;-74
2021/08/27 09:02:08;;;;;;;19.45;4.15;;;15.90;93.80;;;;;;5054750;28;20055;-77
2021/08/27 09:04:34;;;;;;;6.10;3.17;;;15.90;94.40;;;;;;5054663;28;20025;-74
2021/08/27 09:06:59;;;;;;;11.30;2.83;;;16.00;96.00;;;;;;5054787;28;20067;-75
2021/08/27 09:09:33;;;;;;;5.55;2.92;;;15.90;95.40;;;;;;5054640;28;20473;-73
2021/08/27 09:12:06;;;;;;;6.85;3.15;;;15.80;95.20;;;;;;5054593;28;20025;-73
2021/08/27 09:14:31;;;;;;;10.45;3.30;;;15.70;95.60;;;;;;5054459;28;20135;-73
2021/08/27 09:17:04;;;;;;;3.72;2.65;;;15.70;96.40;;;;;;5054526;28;20115;-73
2021/08/27 09:19:51;;;;;;;5.40;2.85;;;15.70;94.60;;;;;;5054444;28;20021;-75
2021/08/27 09:22:19;;;;;;;3.40;2.72;;;15.70;92.70;;;;;;5054601;28;20029;-76
2021/08/27 09:25:02;;;;;;;4.78;2.88;;;15.60;93.00;;;;;;5057853;28;20021;-77
2021/08/27 09:27:28;;;;;;;11.50;3.15;;;15.60;94.40;;;;;;5056420;28;20602;-78
2021/08/27 09:29:53;;;;;;;4.65;2.40;;;15.60;95.50;;;;;;5069961;28;20149;-77
2021/08/27 09:32:32;;;;;;;6.80;2.90;;;15.60;95.50;;;;;;5071731;28;20503;-76
2021/08/27 09:35:05;;;;;;;14.40;3.05;;;15.60;95.30;;;;;;5064148;28;20059;-75
2021/08/27 09:37:36;;;;;;;2.85;2.22;;;15.60;96.30;;;;;;5063046;28;20353;-77
2021/08/27 09:40:05;;;;;;;3.70;2.45;;;15.60;94.80;;;;;;5065227;28;20012;-78
2021/08/27 09:42:48;;;;;;;5.53;2.35;;;15.60;95.40;;;;;;5064585;28;20162;-77
2021/08/27 09:45:14;;;;;;;8.63;2.85;;;15.50;93.70;;;;;;5065226;28;20017;-78
2021/08/27 09:47:58;;;;;;;5.20;2.55;;;15.50;94.00;;;;;;5068783;28;20035;-77
2021/08/27 09:50:26;;;;;;;4.93;2.55;;;15.40;93.70;;;;;;5064079;28;20029;-76
2021/08/27 09:52:57;;;;;;;5.22;2.70;;;15.50;94.40;;;;;;5073442;28;20107;-77
2021/08/27 09:55:24;;;;;;;11.38;3.03;;;15.40;94.60;;;;;;5073460;28;20392;-76
2021/08/27 09:57:50;;;;;;;6.22;2.10;;;15.50;95.50;;;;;;5072503;28;20381;-78
2021/08/27 10:00:20;;;;;;;6.45;2.85;;;15.60;99.20;;;;;;5073623;28;20086;-80
2021/08/27 10:02:47;;;;;;;12.95;2.72;;;15.80;95.00;;;;;;5073533;28;20515;-74
2021/08/27 10:05:14;;;;;;;19.23;3.40;;;15.60;94.30;;;;;;5073779;28;20078;-74
2021/08/27 10:07:41;;;;;;;7.65;2.38;;;15.60;95.40;;;;;;5073888;28;20362;-74
2021/08/27 10:10:15;;;;;;;9.90;2.42;;;15.80;98.00;;;;;;5073440;28;20060;-73
2021/08/27 10:12:46;;;;;;;7.13;2.63;;;16.20;97.30;;;;;;5073662;28;20031;-73
2021/08/27 10:15:12;;;;;;;;;;;16.00;93.30;;;;;;5073823;28;20090;-73
2021/08/27 10:17:40;;;;;;;3.17;2.03;;;15.80;92.80;;;;;;5073736;28;20004;-73
2021/08/27 10:20:07;;;;;;;6.68;2.58;;;15.70;93.60;;;;;;5073179;28;20028;-73
2021/08/27 10:22:40;;;;;;;9.48;2.63;;;15.70;92.60;;;;;;5073367;28;20032;-73
2021/08/27 10:25:09;;;;;;;11.50;2.40;;;15.60;92.90;;;;;;5073004;28;20097;-73
2021/08/27 10:27:35;;;;;;;4.53;2.20;;;15.60;92.20;;;;;;5072861;28;20051;-73
2021/08/27 10:30:03;;;;;;;5.13;2.35;;;15.50;91.70;;;;;;5073094;28;20028;-73
2021/08/27 10:32:41;;;;;;;6.72;2.75;;;15.40;91.90;;;;;;5073460;28;20390;-73
2021/08/27 10:35:29;;;;;;;6.50;2.38;;;15.40;92.80;;;;;;5072812;28;20016;-73
2021/08/27 10:37:55;;;;;;;2.45;2.08;;;15.40;93.10;;;;;;5068568;28;20119;-73
2021/08/27 10:40:26;;;;;;;4.00;2.90;;;15.40;92.90;;;;;;5072781;28;20115;-73
2021/08/27 10:43:03;;;;;;;5.70;2.95;;;15.30;93.20;;;;;;5072833;28;20027;-73
2021/08/27 10:45:45;;;;;;;13.40;2.97;;;15.40;93.90;;;;;;5072645;28;20020;-73
2021/08/27 10:48:15;;;;;;;6.45;2.70;;;15.40;94.10;;;;;;5072440;28;20036;-73
2021/08/27 10:50:46;;;;;;;3.97;2.40;;;15.40;93.10;;;;;;5072617;28;20040;-73
2021/08/27 10:53:24;;;;;;;10.77;3.25;;;15.40;93.40;;;;;;5072561;28;20501;-73
2021/08/27 10:55:51;;;;;;;3.35;2.10;;;15.40;92.80;;;;;;5072593;28;20032;-73
2021/08/27 10:58:22;;;;;;;4.20;2.15;;;15.40;92.20;;;;;;5072457;28;20028;-73
2021/08/27 11:00:52;;;;;;;3.47;2.28;;;15.40;92.80;;;;;;5072791;28;20148;-73
2021/08/27 11:03:21;;;;;;;5.35;2.80;;;15.30;92.30;;;;;;5072383;28;20016;-73
2021/08/27 11:05:48;;;;;;;8.30;2.67;;;15.30;92.50;;;;;;5072337;28;20028;-73
2021/08/27 11:08:34;;;;;;;6.25;3.03;;;15.30;92.90;;;;;;5072173;28;20032;-73
2021/08/27 11:11:23;;;;;;;5.32;2.78;;;15.40;94.40;;;;;;5072618;28;20029;-73
2021/08/27 11:13:49;;;;;;;19.83;3.90;;;15.40;94.30;;;;;;5071880;28;20067;-73
2021/08/27 11:16:23;;;;;;;5.47;2.42;;;15.40;92.80;;;;;;5071572;28;20070;-73
2021/08/27 11:18:50;;;;;;;8.82;2.10;;;15.30;92.20;;;;;;5072522;28;20024;-73
2021/08/27 11:21:36;;;;;;;7.72;2.65;;;15.40;93.60;;;;;;5072041;28;20412;-73
2021/08/27 11:24:26;;;;;;;8.90;2.78;;;15.40;91.60;;;;;;5072095;28;20024;-73
2021/08/27 11:27:08;;;;;;;7.43;2.70;;;15.40;92.20;;;;;;5072069;28;20037;-73
2021/08/27 11:29:39;;;;;;;21.55;3.30;;;15.30;93.70;;;;;;5072381;28;20029;-73
2021/08/27 11:32:16;;;;;;;12.77;2.33;;;15.30;93.00;;;;;;5071987;28;20038;-73
2021/08/27 11:35:08;;;;;;;6.25;2.85;;;15.30;92.80;;;;;;5072354;28;20020;-73
2021/08/27 11:37:38;;;;;;;4.57;2.33;;;15.30;93.60;;;;;;5071710;28;20037;-73
2021/08/27 11:40:05;;;;;;;;;;;15.30;92.50;;;;;;5072411;28;20054;-73
2021/08/27 11:42:31;;;;;;;10.98;2.45;;;15.20;91.30;;;;;;5071895;28;19911;-73
2021/08/27 11:45:20;;;;;;;9.07;2.70;;;15.20;92.10;;;;;;5072057;28;20118;-73
2021/08/27 11:47:51;;;;;;;6.25;2.63;;;15.10;92.50;;;;;;5070580;28;20039;-73
2021/08/27 11:50:46;;;;;;;11.57;2.80;;;15.20;93.60;;;;;;5071596;28;20029;-73
2021/08/27 11:53:12;;;;;;;16.38;2.50;;;15.20;93.30;;;;;;5071578;28;20024;-73
2021/08/27 11:55:45;;;;;;;5.25;2.40;;;15.30;92.90;;;;;;5071971;28;20028;-73
2021/08/27 11:58:11;;;;;;;4.72;2.50;;;15.30;93.10;;;;;;5071643;28;20047;-73
2021/08/27 12:00:39;;;;;;;7.05;2.30;;;15.30;93.00;;;;;;5071986;28;20043;-73
2021/08/27 12:03:06;;;;;;;10.93;2.72;;;15.30;91.90;;;;;;5071762;28;20021;-73
2021/08/27 12:05:33;;;;;;;10.50;2.90;;;15.30;92.00;;;;;;5071546;28;20032;-73
2021/08/27 12:08:07;;;;;;;6.60;2.65;;;15.40;92.80;;;;;;5071681;28;20514;-73
2021/08/27 12:10:34;;;;;;;5.93;2.25;;;15.30;93.20;;;;;;5071726;28;20027;-73
2021/08/27 12:13:02;;;;;;;4.78;2.17;;;15.40;93.70;;;;;;5071848;28;20067;-73
2021/08/27 12:15:33;;;;;;;4.97;2.33;;;15.30;93.20;;;;;;5071404;28;20032;-73
2021/08/27 12:18:05;;;;;;;4.47;2.10;;;15.30;93.70;;;;;;5071719;28;20017;-73
2021/08/27 12:20:34;;;;;;;8.30;2.65;;;15.30;92.70;;;;;;5071468;28;20552;-73
2021/08/27 12:23:05;;;;;;;3.65;2.00;;;15.30;93.30;;;;;;5071733;28;20035;-73
2021/08/27 12:25:38;;;;;;;20.30;2.97;;;15.30;94.10;;;;;;5071367;28;20058;-73
2021/08/27 12:28:04;;;;;;;3.65;2.50;;;15.30;94.60;;;;;;5074165;28;20448;-73
2021/08/27 12:30:30;;;;;;;7.10;2.35;;;15.30;94.00;;;;;;5075337;28;20122;-73
2021/08/27 12:32:57;;;;;;;5.20;2.20;;;15.30;93.50;;;;;;5075708;28;20116;-73
2021/08/27 12:35:31;;;;;;;6.60;2.67;;;15.30;93.50;;;;;;5075165;28;20028;-73
2021/08/27 12:37:59;;;;;;;10.77;2.83;;;15.30;93.70;;;;;;5075574;28;20543;-73
2021/08/27 12:40:27;;;;;;;16.13;2.75;;;15.30;94.10;;;;;;5073853;28;20023;-73
2021/08/27 12:42:55;;;;;;;8.98;2.75;;;15.30;95.00;;;;;;5075490;28;20029;-73
2021/08/27 12:45:21;;;;;;;4.78;2.30;;;15.30;94.80;;;;;;5074820;28;20024;-73
2021/08/27 12:47:47;;;;;;;7.93;2.65;;;15.30;94.30;;;;;;5075192;28;20062;-73
2021/08/27 12:50:15;;;;;;;13.43;3.05;;;15.30;94.40;;;;;;5075049;28;20025;-73
2021/08/27 12:52:58;;;;;;;9.80;2.35;;;15.30;94.80;;;;;;5075294;28;20020;-73
2021/08/27 12:55:24;;;;;;;3.03;2.17;;;15.30;94.30;;;;;;5074654;28;20462;-73
2021/08/27 12:57:51;;;;;;;4.38;2.67;;;15.30;93.30;;;;;;5074927;28;20024;-73
2021/08/27 13:00:24;;;;;;;8.85;2.92;;;15.30;93.80;;;;;;5074908;28;20029;-73
2021/08/27 13:02:50;;;;;;;11.23;3.25;;;15.30;93.90;;;;;;5074725;28;20031;-73
2021/08/27 13:05:36;;;;;;;14.15;3.30;;;15.30;94.50;;;;;;5074827;28;20021;-73
2021/08/27 13:08:16;;;;;;;12.60;2.95;;;15.30;94.40;;;;;;5074994;28;20071;-73
2021/08/27 13:10:58;;;;;;;;;;;15.30;94.40;;;;;;5075051;28;20024;-73
2021/08/27 13:13:32;;;;;;;7.70;3.00;;;15.30;94.40;;;;;;5074550;28;19919;-73
2021/08/27 13:16:15;;;;;;;8.35;2.88;;;15.30;93.90;;;;;;5074818;28;20065;-73
2021/08/27 13:18:44;;;;;;;6.63;2.75;;;15.30;94.80;;;;;;5074894;28;20086;-73
2021/08/27 13:21:11;;;;;;;13.35;3.75;;;15.30;94.60;;;;;;5074777;28;20103;-73
2021/08/27 13:23:37;;;;;;;13.32;3.17;;;15.40;95.30;;;;;;5074355;28;20414;-73
2021/08/27 13:26:07;;;;;;;4.53;2.60;;;15.40;95.20;;;;;;5074532;28;20036;-72
2021/08/27 13:28:34;;;;;;;24.30;3.55;;;15.30;94.70;;;;;;5074324;28;20025;-73